createdAt,value
2019-05-19T00:01:00.683Z,93.58
2019-05-19T00:03:29.114Z,98.95
2019-05-19T00:05:57.568Z,96.85
2019-05-19T00:08:26.044Z,87.42
2019-05-19T00:10:54.478Z,97.90
2019-05-19T00:13:22.922Z,96.17
2019-05-19T00:15:51.358Z,93.82
2019-05-19T00:18:19.783Z,94.65
2019-05-19T00:20:48.243Z,95.25
2019-05-19T00:23:16.841Z,99.73
2019-05-19T00:25:45.338Z,100.38
2019-05-19T00:28:13.777Z,102.73
2019-05-19T00:30:42.227Z,107.95
2019-05-19T00:33:10.665Z,109.10
2019-05-19T00:35:39.113Z,124.60
2019-05-19T00:38:07.571Z,108.10
2019-05-19T00:40:36.025Z,106.07
2019-05-19T00:43:04.473Z,112.27
2019-05-19T00:45:33.020Z,108.30
2019-05-19T00:48:01.465Z,113.68
2019-05-19T00:50:29.891Z,122.80
2019-05-19T00:52:59.102Z,115.30
2019-05-19T00:55:27.533Z,123.85
2019-05-19T00:57:56.909Z,120.77
2019-05-19T01:00:25.351Z,112.83
2019-05-19T01:02:53.791Z,121.77
2019-05-19T01:05:22.239Z,117.75
2019-05-19T01:07:50.689Z,112.20
2019-05-19T01:10:19.199Z,110.28
2019-05-19T01:12:47.721Z,114.97
2019-05-19T01:15:17.761Z,108.27
2019-05-19T01:17:46.197Z,113.00
2019-05-19T01:20:15.981Z,103.00
2019-05-19T01:22:44.461Z,99.20
2019-05-19T01:25:13.986Z,100.40
2019-05-19T01:27:42.420Z,96.53
2019-05-19T01:30:11.495Z,93.20
2019-05-19T01:32:39.927Z,94.07
2019-05-19T01:35:08.994Z,94.50
2019-05-19T01:37:37.429Z,89.55
2019-05-19T01:40:09.281Z,88.60
2019-05-19T01:42:37.801Z,78.65
2019-05-19T01:45:07.259Z,79.95
2019-05-19T01:47:35.783Z,82.67
2019-05-19T01:50:17.682Z,73.65
2019-05-19T01:52:36.263Z,83.00
2019-05-19T01:55:05.563Z,79.17
2019-05-19T01:57:33.992Z,72.42
2019-05-19T02:00:03.528Z,69.42
2019-05-19T02:02:32.419Z,68.33
2019-05-19T02:05:00.845Z,63.42
2019-05-19T02:07:29.294Z,66.62
2019-05-19T02:09:57.740Z,63.78
2019-05-19T02:12:26.160Z,66.10
2019-05-19T02:14:54.625Z,63.95
2019-05-19T02:17:23.055Z,54.77
2019-05-19T02:19:51.483Z,62.98
2019-05-19T02:22:19.943Z,55.78
2019-05-19T02:24:48.375Z,58.47
2019-05-19T02:27:16.813Z,57.50
2019-05-19T02:29:45.247Z,55.48
2019-05-19T02:32:13.714Z,62.23
2019-05-19T02:34:42.176Z,51.53
2019-05-19T02:37:10.638Z,70.52
2019-05-19T02:39:39.073Z,78.25
2019-05-19T02:42:09.647Z,55.73
2019-05-19T02:44:39.816Z,40.75
2019-05-19T02:47:09.897Z,51.18
2019-05-19T02:49:39.690Z,53.50
2019-05-19T02:52:10.317Z,58.05
2019-05-19T02:54:39.051Z,62.50
2019-05-19T02:57:08.140Z,51.68
2019-05-19T02:59:37.036Z,59.03
2019-05-19T03:02:07.095Z,51.37
2019-05-19T03:04:35.541Z,45.05
2019-05-19T03:07:04.042Z,45.50
2019-05-19T03:09:32.488Z,52.77
2019-05-19T03:12:00.914Z,44.10
2019-05-19T03:14:29.349Z,46.53
2019-05-19T03:16:57.769Z,43.87
2019-05-19T03:19:26.213Z,47.98
2019-05-19T03:21:54.804Z,43.90
2019-05-19T03:24:23.238Z,39.38
2019-05-19T03:26:51.664Z,42.23
2019-05-19T03:29:21.780Z,49.45
2019-05-19T03:31:58.060Z,37.48
2019-05-19T03:34:27.278Z,44.03
2019-05-19T03:36:55.705Z,46.45
2019-05-19T03:39:24.132Z,45.73
2019-05-19T03:41:52.624Z,41.48
2019-05-19T03:44:21.061Z,46.30
2019-05-19T03:46:49.487Z,53.45
2019-05-19T03:49:17.960Z,37.50
2019-05-19T03:51:46.433Z,42.43
2019-05-19T03:54:14.883Z,60.00
2019-05-19T03:56:43.375Z,44.35
2019-05-19T03:59:11.839Z,39.60
2019-05-19T04:01:40.295Z,44.55
2019-05-19T04:04:08.717Z,35.45
2019-05-19T04:06:37.163Z,40.08
2019-05-19T04:09:07.023Z,41.15
2019-05-19T04:11:35.803Z,38.65
2019-05-19T04:14:04.315Z,43.15
2019-05-19T04:16:32.753Z,39.25
2019-05-19T04:19:01.220Z,35.13
2019-05-19T04:21:38.744Z,41.05
2019-05-19T04:23:59.863Z,45.92
2019-05-19T04:26:28.300Z,36.42
2019-05-19T04:28:56.731Z,38.35
2019-05-19T04:31:25.170Z,49.15
2019-05-19T04:33:53.607Z,37.78
2019-05-19T04:36:22.128Z,39.75
2019-05-19T04:38:50.597Z,35.98
2019-05-19T04:41:19.027Z,39.78
2019-05-19T04:43:47.660Z,39.70
2019-05-19T04:46:16.442Z,38.48
2019-05-19T04:48:44.888Z,40.60
2019-05-19T04:51:13.344Z,32.13
2019-05-19T04:53:41.770Z,37.78
2019-05-19T04:56:10.234Z,37.88
2019-05-19T04:58:38.663Z,35.98
2019-05-19T05:01:07.080Z,33.00
2019-05-19T05:03:35.517Z,34.57
2019-05-19T05:06:04.069Z,38.40
2019-05-19T05:08:32.498Z,33.77
2019-05-19T05:11:00.938Z,31.50
2019-05-19T05:13:29.373Z,32.65
2019-05-19T05:15:57.840Z,35.05
2019-05-19T05:18:26.312Z,32.63
2019-05-19T05:20:54.714Z,41.68
2019-05-19T05:23:23.141Z,30.95
2019-05-19T05:25:51.573Z,29.72
2019-05-19T05:28:20.007Z,31.42
2019-05-19T05:30:48.444Z,34.40
2019-05-19T05:33:18.080Z,31.20
2019-05-19T05:35:46.515Z,30.97
2019-05-19T05:38:14.956Z,30.30
2019-05-19T05:40:43.404Z,32.80
2019-05-19T05:43:11.859Z,31.43
2019-05-19T05:45:40.281Z,31.20
2019-05-19T05:48:08.746Z,29.40
2019-05-19T05:50:37.201Z,33.65
2019-05-19T05:53:05.658Z,30.33
2019-05-19T05:55:34.082Z,31.55
2019-05-19T05:58:02.533Z,33.13
2019-05-19T06:00:31.003Z,30.00
2019-05-19T06:02:59.710Z,27.73
2019-05-19T06:05:28.128Z,27.62
2019-05-19T06:07:56.578Z,29.20
2019-05-19T06:10:25.002Z,26.60
2019-05-19T06:12:53.436Z,28.98
2019-05-19T06:15:21.904Z,28.17
2019-05-19T06:17:50.320Z,29.55
2019-05-19T06:20:18.763Z,28.30
2019-05-19T06:22:56.504Z,31.27
2019-05-19T06:27:45.065Z,29.05
2019-05-19T06:30:14.374Z,30.50
2019-05-19T06:32:50.169Z,28.00
2019-05-19T06:35:18.742Z,25.25
2019-05-19T06:37:47.195Z,24.02
2019-05-19T06:40:16.439Z,22.60
2019-05-19T06:42:44.865Z,22.82
2019-05-19T06:45:14.443Z,28.15
2019-05-19T06:47:42.867Z,23.33
2019-05-19T06:50:12.041Z,22.98
2019-05-19T06:52:40.502Z,22.10
2019-05-19T06:55:09.189Z,25.05
2019-05-19T06:57:37.640Z,24.20
2019-05-19T07:00:07.730Z,25.72
2019-05-19T07:02:36.226Z,22.58
2019-05-19T07:05:06.411Z,21.60
2019-05-19T07:07:34.886Z,23.18
2019-05-19T07:10:04.305Z,19.55
2019-05-19T07:12:32.744Z,22.97
2019-05-19T07:15:01.300Z,21.80
2019-05-19T07:17:29.736Z,20.00
2019-05-19T07:19:58.167Z,20.12
2019-05-19T07:22:26.621Z,20.10
2019-05-19T07:24:55.046Z,22.55
2019-05-19T07:27:23.499Z,22.85
2019-05-19T07:29:51.996Z,21.55
2019-05-19T07:32:20.754Z,20.37
2019-05-19T07:34:49.203Z,19.87
2019-05-19T07:37:17.633Z,19.48
2019-05-19T07:39:46.152Z,22.48
2019-05-19T07:42:14.608Z,21.12
2019-05-19T07:44:45.279Z,20.43
2019-05-19T07:47:13.449Z,18.20
2019-05-19T07:49:41.920Z,18.60
2019-05-19T07:52:10.351Z,17.95
2019-05-19T07:54:38.778Z,19.20
2019-05-19T07:57:07.279Z,18.00
2019-05-19T07:59:35.715Z,19.97
2019-05-19T08:02:04.229Z,18.55
2019-05-19T08:04:32.668Z,18.02
2019-05-19T08:07:01.108Z,17.48
2019-05-19T08:09:29.548Z,22.20
2019-05-19T08:11:58.018Z,18.82
2019-05-19T08:14:26.441Z,21.17
2019-05-19T08:16:54.878Z,19.48
2019-05-19T08:19:23.348Z,19.02
2019-05-19T08:21:51.769Z,17.60
2019-05-19T08:24:20.198Z,19.52
2019-05-19T08:26:48.636Z,17.98
2019-05-19T08:29:17.065Z,17.90
2019-05-19T08:31:45.514Z,18.12
2019-05-19T08:34:13.947Z,16.57
2019-05-19T08:36:42.411Z,17.92
2019-05-19T08:39:10.893Z,16.25
2019-05-19T08:41:39.361Z,16.42
2019-05-19T08:44:07.798Z,16.55
2019-05-19T08:46:36.234Z,16.37
2019-05-19T08:49:04.734Z,15.60
2019-05-19T08:51:33.165Z,16.23
2019-05-19T08:54:13.906Z,16.70
2019-05-19T08:56:31.741Z,15.63
2019-05-19T08:59:00.180Z,16.15
2019-05-19T09:01:28.611Z,17.60
2019-05-19T09:03:57.146Z,15.23
2019-05-19T09:06:25.584Z,15.45
2019-05-19T09:08:54.017Z,16.02
2019-05-19T09:11:22.441Z,15.50
2019-05-19T09:13:50.882Z,16.20
2019-05-19T09:16:19.337Z,16.85
2019-05-19T09:18:47.846Z,15.40
2019-05-19T09:21:17.511Z,14.30
2019-05-19T09:23:45.917Z,16.12
2019-05-19T09:26:14.387Z,14.87
2019-05-19T09:28:42.839Z,13.63
2019-05-19T09:31:11.272Z,14.40
2019-05-19T09:33:39.714Z,14.97
2019-05-19T09:36:08.145Z,13.90
2019-05-19T09:38:36.901Z,14.10
2019-05-19T09:41:05.509Z,13.93
2019-05-19T09:43:33.934Z,14.90
2019-05-19T09:46:02.375Z,12.65
2019-05-19T09:48:30.835Z,12.40
2019-05-19T09:50:59.278Z,13.75
2019-05-19T09:53:27.708Z,13.53
2019-05-19T09:55:56.132Z,12.98
2019-05-19T09:58:26.116Z,11.03
2019-05-19T10:03:22.302Z,11.70
2019-05-19T10:05:50.701Z,12.82
2019-05-19T10:08:25.474Z,12.90
2019-05-19T10:11:16.556Z,13.08
2019-05-19T10:13:45.039Z,15.63
2019-05-19T10:16:13.463Z,12.20
2019-05-19T10:18:41.929Z,11.50
2019-05-19T10:21:10.392Z,13.75
2019-05-19T10:23:38.777Z,12.03
2019-05-19T10:26:07.246Z,10.93
2019-05-19T10:28:35.661Z,11.18
2019-05-19T10:31:04.097Z,10.58
2019-05-19T10:33:32.547Z,10.90
2019-05-19T10:36:01.011Z,11.85
2019-05-19T10:38:29.483Z,11.25
2019-05-19T10:40:57.905Z,9.70
2019-05-19T10:43:26.329Z,10.20
2019-05-19T10:46:00.614Z,9.33
2019-05-19T10:48:29.047Z,10.58
2019-05-19T10:50:57.477Z,11.83
2019-05-19T10:53:25.930Z,11.30
2019-05-19T10:55:54.405Z,9.88
2019-05-19T10:58:22.819Z,9.33
2019-05-19T11:00:51.252Z,10.93
2019-05-19T11:03:19.687Z,9.08
2019-05-19T11:05:48.110Z,9.83
2019-05-19T11:08:16.563Z,9.25
2019-05-19T11:10:44.974Z,10.60
2019-05-19T11:13:13.405Z,9.80
2019-05-19T11:15:41.838Z,10.60
2019-05-19T11:18:10.274Z,9.33
2019-05-19T11:20:38.718Z,9.55
2019-05-19T11:23:07.148Z,8.70
2019-05-19T11:25:49.261Z,10.48
2019-05-19T11:28:05.735Z,9.07
2019-05-19T11:30:34.158Z,8.53
2019-05-19T11:33:02.599Z,9.65
2019-05-19T11:35:31.072Z,9.60
2019-05-19T11:37:59.837Z,10.05
2019-05-19T11:40:28.253Z,9.10
2019-05-19T11:42:56.685Z,9.40
2019-05-19T11:45:25.141Z,8.58
2019-05-19T11:47:53.559Z,9.05
2019-05-19T11:50:21.978Z,9.10
2019-05-19T11:52:50.496Z,7.87
2019-05-19T11:55:18.917Z,9.80
2019-05-19T11:57:47.379Z,9.88
2019-05-19T12:00:16.238Z,9.15
2019-05-19T12:02:44.657Z,9.93
2019-05-19T12:05:13.647Z,8.30
2019-05-19T12:07:42.067Z,10.18
2019-05-19T12:10:10.844Z,8.50
2019-05-19T12:12:39.385Z,10.37
2019-05-19T12:15:09.051Z,9.55
2019-05-19T12:20:06.654Z,9.98
2019-05-19T12:22:35.094Z,10.15
2019-05-19T12:25:03.997Z,10.03
2019-05-19T12:27:32.467Z,9.80
2019-05-19T12:30:00.849Z,9.58
2019-05-19T12:32:29.346Z,9.33
2019-05-19T12:34:57.784Z,9.78
2019-05-19T12:37:26.246Z,9.93
2019-05-19T12:39:54.673Z,10.10
2019-05-19T12:42:23.109Z,9.40
2019-05-19T12:44:51.550Z,10.00
2019-05-19T12:47:19.994Z,10.43
2019-05-19T12:49:48.433Z,11.20
2019-05-19T12:52:16.858Z,10.43
2019-05-19T12:54:45.337Z,9.97
2019-05-19T12:57:13.828Z,10.30
2019-05-19T12:59:42.266Z,10.00
2019-05-19T13:02:10.870Z,10.95
2019-05-19T13:04:39.373Z,11.43
2019-05-19T13:07:07.775Z,10.68
2019-05-19T13:09:36.200Z,11.30
2019-05-19T13:12:04.746Z,14.73
2019-05-19T13:14:33.180Z,10.20
2019-05-19T13:17:01.620Z,10.43
2019-05-19T13:19:30.062Z,9.93
2019-05-19T13:21:58.546Z,10.55
2019-05-19T13:24:27.032Z,11.00
2019-05-19T13:26:56.982Z,11.38
2019-05-19T13:29:25.600Z,9.63
2019-05-19T13:31:54.025Z,10.78
2019-05-19T13:34:22.461Z,10.37
2019-05-19T13:36:50.905Z,11.90
2019-05-19T13:39:19.815Z,12.47
2019-05-19T13:41:48.255Z,10.90
2019-05-19T13:44:16.686Z,10.93
2019-05-19T13:46:45.133Z,11.40
2019-05-19T13:49:13.556Z,12.80
2019-05-19T13:51:41.994Z,10.50
2019-05-19T13:54:10.430Z,10.87
2019-05-19T13:56:38.868Z,11.55
2019-05-19T13:59:07.296Z,11.17
2019-05-19T14:01:35.733Z,13.58
2019-05-19T14:04:04.156Z,11.80
2019-05-19T14:06:32.596Z,10.63
2019-05-19T14:09:01.059Z,10.63
2019-05-19T14:11:29.481Z,10.95
2019-05-19T14:13:57.914Z,12.60
2019-05-19T14:16:26.370Z,10.53
2019-05-19T14:18:54.846Z,11.00
2019-05-19T14:21:23.240Z,10.78
2019-05-19T14:23:52.012Z,9.93
2019-05-19T14:26:20.623Z,11.60
2019-05-19T14:28:49.019Z,11.73
2019-05-19T14:31:17.449Z,11.28
2019-05-19T14:33:45.907Z,11.50
2019-05-19T14:36:14.345Z,11.50
2019-05-19T14:38:44.456Z,10.50
2019-05-19T14:41:12.877Z,11.05
2019-05-19T14:43:41.309Z,11.45
2019-05-19T14:46:09.765Z,11.83
2019-05-19T14:48:38.170Z,10.82
2019-05-19T14:51:06.600Z,11.30
2019-05-19T14:53:35.041Z,10.73
2019-05-19T14:56:03.566Z,10.30
2019-05-19T14:58:31.996Z,11.43
2019-05-19T15:01:00.455Z,11.83
2019-05-19T15:03:28.882Z,10.65
2019-05-19T15:05:57.327Z,9.98
2019-05-19T15:08:25.750Z,11.03
2019-05-19T15:10:54.178Z,10.68
2019-05-19T15:13:22.605Z,13.32
2019-05-19T15:15:51.069Z,10.30
2019-05-19T15:18:19.500Z,11.12
2019-05-19T15:20:47.932Z,15.03
2019-05-19T15:23:16.368Z,10.27
2019-05-19T15:25:44.813Z,11.65
2019-05-19T15:28:13.273Z,11.17
2019-05-19T15:30:41.698Z,11.35
2019-05-19T15:33:10.164Z,11.23
2019-05-19T15:35:38.591Z,12.25
2019-05-19T15:38:07.123Z,12.03
2019-05-19T15:40:35.565Z,11.20
2019-05-19T15:43:03.984Z,11.33
2019-05-19T15:45:32.416Z,11.85
2019-05-19T15:48:00.837Z,10.68
2019-05-19T15:50:29.264Z,11.20
2019-05-19T15:52:57.764Z,11.12
2019-05-19T15:55:26.208Z,10.32
2019-05-19T15:57:54.648Z,10.60
2019-05-19T16:00:23.358Z,11.13
2019-05-19T16:02:51.782Z,12.37
2019-05-19T16:05:20.224Z,11.77
2019-05-19T16:07:48.657Z,12.15
2019-05-19T16:10:17.501Z,12.60
2019-05-19T16:12:46.016Z,12.03
2019-05-19T16:15:14.997Z,11.88
2019-05-19T16:17:43.471Z,13.32
2019-05-19T16:20:12.338Z,12.35
2019-05-19T16:22:40.911Z,11.85
2019-05-19T16:25:10.080Z,12.40
2019-05-19T16:27:38.707Z,14.30
2019-05-19T16:30:07.867Z,12.97
2019-05-19T16:32:36.352Z,11.73
2019-05-19T16:35:06.702Z,12.30
2019-05-19T16:37:35.136Z,11.80
2019-05-19T16:40:03.829Z,10.25
2019-05-19T16:42:32.295Z,13.08
2019-05-19T16:45:00.730Z,11.40
2019-05-19T16:47:29.161Z,12.18
2019-05-19T16:49:57.617Z,11.25
2019-05-19T16:52:26.077Z,11.78
2019-05-19T16:55:12.277Z,10.60
2019-05-19T16:57:40.689Z,10.25
2019-05-19T17:00:09.454Z,11.13
2019-05-19T17:02:37.879Z,10.48
2019-05-19T17:05:07.755Z,12.73
2019-05-19T17:07:36.273Z,10.20
2019-05-19T17:10:07.098Z,13.28
2019-05-19T17:12:35.536Z,10.05
2019-05-19T17:15:04.938Z,10.45
2019-05-19T17:17:33.366Z,10.38
2019-05-19T17:20:01.805Z,10.00
2019-05-19T17:22:30.229Z,10.68
2019-05-19T17:25:00.417Z,11.15
2019-05-19T17:27:28.976Z,11.10
2019-05-19T17:29:57.411Z,12.88
2019-05-19T17:32:25.842Z,11.45
2019-05-19T17:34:54.273Z,11.12
2019-05-19T17:37:22.745Z,11.30
2019-05-19T17:39:51.151Z,11.33
2019-05-19T17:42:19.591Z,11.53
2019-05-19T17:44:48.030Z,11.57
2019-05-19T17:47:16.905Z,11.68
2019-05-19T17:49:45.419Z,13.47
2019-05-19T17:52:13.923Z,12.93
2019-05-19T17:54:42.430Z,12.80
2019-05-19T17:57:11.449Z,13.30
2019-05-19T17:59:41.659Z,13.25
2019-05-19T18:02:10.096Z,13.43
2019-05-19T18:04:38.525Z,13.13
2019-05-19T18:07:06.964Z,14.13
2019-05-19T18:09:35.394Z,13.00
2019-05-19T18:12:03.823Z,13.50
2019-05-19T18:14:32.263Z,13.58
2019-05-19T18:17:00.696Z,16.30
2019-05-19T18:19:29.161Z,14.20
2019-05-19T18:21:57.591Z,12.35
2019-05-19T18:24:26.023Z,16.15
2019-05-19T18:26:54.458Z,21.57
2019-05-19T18:29:30.958Z,13.43
2019-05-19T18:34:20.704Z,16.73
2019-05-19T18:36:49.179Z,15.10
2019-05-19T18:39:17.660Z,17.07
2019-05-19T18:41:46.094Z,16.17
2019-05-19T18:44:14.518Z,15.88
2019-05-19T18:46:43.157Z,15.30
2019-05-19T18:49:11.650Z,18.35
2019-05-19T18:51:40.098Z,18.17
2019-05-19T18:54:08.534Z,17.42
2019-05-19T18:56:37.080Z,19.50
2019-05-19T18:59:05.506Z,13.32
2019-05-19T19:01:34.023Z,17.15
2019-05-19T19:04:02.471Z,14.63
2019-05-19T19:06:32.650Z,20.25
2019-05-19T19:09:01.205Z,16.33
2019-05-19T19:11:29.761Z,13.32
2019-05-19T19:13:58.242Z,13.90
2019-05-19T19:16:29.694Z,13.13
2019-05-19T19:18:58.271Z,15.05
2019-05-19T19:21:26.730Z,18.20
2019-05-19T19:23:55.203Z,14.58
2019-05-19T19:26:23.678Z,13.98
2019-05-19T19:28:52.135Z,15.07
2019-05-19T19:31:21.698Z,15.28
2019-05-19T19:36:18.513Z,16.67
2019-05-19T19:38:47.023Z,17.77
2019-05-19T19:41:15.477Z,18.32
2019-05-19T19:43:43.906Z,17.90
2019-05-19T19:46:12.386Z,19.80
2019-05-19T19:48:40.880Z,24.37
2019-05-19T19:51:09.336Z,21.07
2019-05-19T19:53:37.754Z,22.75
2019-05-19T19:56:06.295Z,22.27
2019-05-19T19:58:34.732Z,20.95
2019-05-19T20:01:03.168Z,23.52
2019-05-19T20:03:32.184Z,20.77
2019-05-19T20:06:00.606Z,24.92
2019-05-19T20:08:29.076Z,20.30
2019-05-19T20:10:57.551Z,20.90
2019-05-19T20:13:25.936Z,24.67
2019-05-19T20:15:54.670Z,24.37
2019-05-19T20:18:23.192Z,24.90
2019-05-19T20:20:51.589Z,26.52
2019-05-19T20:23:20.075Z,24.12
2019-05-19T20:25:48.585Z,24.67
2019-05-19T20:28:17.041Z,22.70
2019-05-19T20:30:45.538Z,24.18
2019-05-19T20:33:14.091Z,29.40
2019-05-19T20:35:42.817Z,26.70
2019-05-19T20:38:11.436Z,22.97
2019-05-19T20:40:39.865Z,26.93
2019-05-19T20:43:08.327Z,23.70
2019-05-19T20:45:36.750Z,24.75
2019-05-19T20:48:05.248Z,25.33
2019-05-19T20:50:33.749Z,25.90
2019-05-19T20:53:02.245Z,28.75
2019-05-19T20:55:30.666Z,27.32
2019-05-19T20:57:59.162Z,26.70
2019-05-19T21:00:28.024Z,29.65
2019-05-19T21:02:56.460Z,28.42
2019-05-19T21:05:24.897Z,30.70
2019-05-19T21:07:53.358Z,29.20
2019-05-19T21:10:21.812Z,30.92
2019-05-19T21:12:50.244Z,28.62
2019-05-19T21:15:18.682Z,25.97
2019-05-19T21:17:47.108Z,31.65
2019-05-19T21:20:15.669Z,26.90
2019-05-19T21:22:44.100Z,28.87
2019-05-19T21:25:12.612Z,28.17
2019-05-19T21:27:41.072Z,29.12
2019-05-19T21:30:09.960Z,27.07
2019-05-19T21:32:38.403Z,28.67
2019-05-19T21:35:07.589Z,29.23
2019-05-19T21:37:36.021Z,30.35
2019-05-19T21:40:07.074Z,31.17
2019-05-19T21:42:35.526Z,33.78
2019-05-19T21:45:05.315Z,27.80
2019-05-19T21:47:33.732Z,29.40
2019-05-19T21:50:02.523Z,27.65
2019-05-19T21:52:31.150Z,29.95
2019-05-19T21:54:59.921Z,33.20
2019-05-19T21:57:28.368Z,32.88
2019-05-19T21:59:56.790Z,33.18
2019-05-19T22:02:25.294Z,32.42
2019-05-19T22:04:53.777Z,31.80
2019-05-19T22:07:26.778Z,31.05
2019-05-19T22:09:55.221Z,30.90
2019-05-19T22:12:23.719Z,31.48
2019-05-19T22:14:52.143Z,37.38
2019-05-19T22:17:20.601Z,30.40
2019-05-19T22:19:49.034Z,34.75
2019-05-19T22:22:17.484Z,32.20
2019-05-19T22:24:45.919Z,35.65
2019-05-19T22:27:14.358Z,35.25
2019-05-19T22:29:42.796Z,36.53
2019-05-19T22:32:11.237Z,35.80
2019-05-19T22:34:39.669Z,38.92
2019-05-19T22:37:08.283Z,43.83
2019-05-19T22:39:36.801Z,41.20
2019-05-19T22:42:05.243Z,43.08
2019-05-19T22:44:33.689Z,36.35
2019-05-19T22:47:02.153Z,42.62
2019-05-19T22:49:30.557Z,41.92
2019-05-19T22:51:58.986Z,43.85
2019-05-19T22:54:27.429Z,42.40
2019-05-19T22:56:55.854Z,36.85
2019-05-19T22:59:24.298Z,40.55
2019-05-19T23:01:52.747Z,43.13
2019-05-19T23:04:21.175Z,42.15
2019-05-19T23:06:49.626Z,42.45
2019-05-19T23:09:18.064Z,47.40
2019-05-19T23:11:46.498Z,43.68
2019-05-19T23:14:14.949Z,52.55
2019-05-19T23:16:43.380Z,50.00
2019-05-19T23:19:11.823Z,47.25
2019-05-19T23:21:40.267Z,53.02
2019-05-19T23:24:08.722Z,58.45
2019-05-19T23:26:37.154Z,60.45
2019-05-19T23:29:05.610Z,59.20
2019-05-19T23:31:34.112Z,58.02
2019-05-19T23:34:02.535Z,63.10
2019-05-19T23:36:30.989Z,60.90
2019-05-19T23:38:59.442Z,59.53
2019-05-19T23:41:27.880Z,65.10
2019-05-19T23:43:56.314Z,57.48
2019-05-19T23:46:24.745Z,64.53
2019-05-19T23:48:53.213Z,62.60
2019-05-19T23:51:21.647Z,57.58
2019-05-19T23:53:50.086Z,68.12
2019-05-19T23:56:18.529Z,67.47
2019-05-19T23:58:46.948Z,67.03
